Time,TemperatureF,DewpointF,PressureIn,WindDirection,WindDirectionDegrees,WindSpeedMPH,WindSpeedGustMPH,Humidity,HourlyPrecipIn,Conditions,Clouds,dailyrainin,SoftwareType,DateUTC
2013-03-03 00:00:00,53.5,46.1,30.11,East,96,0.0,0.0,76,0.00,,,0.00,Wunderground v.1.15,2013-03-03 08:00:00,
2013-03-03 00:05:00,53.9,45.8,30.11,NNW,343,0.0,2.0,74,0.00,,,0.00,Wunderground v.1.15,2013-03-03 08:05:00,
2013-03-03 00:10:00,54.2,45.7,30.11,North,355,0.0,0.0,73,0.00,,,0.00,Wunderground v.1.15,2013-03-03 08:10:00,
2013-03-03 00:20:00,54.9,46.0,30.10,SE,139,0.0,0.0,72,0.00,,,0.00,Wunderground v.1.15,2013-03-03 08:20:00,
2013-03-03 00:25:00,54.7,46.2,30.10,SE,139,0.0,0.0,73,0.00,,,0.00,Wunderground v.1.15,2013-03-03 08:25:00,
2013-03-03 00:30:00,54.7,46.2,30.10,SE,142,0.0,0.0,73,0.00,,,0.00,Wunderground v.1.15,2013-03-03 08:30:00,
2013-03-03 00:35:00,54.5,46.4,30.10,SE,142,0.0,0.0,74,0.00,,,0.00,Wunderground v.1.15,2013-03-03 08:35:00,
2013-03-03 00:40:00,54.3,45.8,30.11,SE,142,0.0,0.0,73,0.00,,,0.00,Wunderground v.1.15,2013-03-03 08:40:00,
2013-03-03 00:45:00,54.3,46.2,30.11,SE,142,0.0,0.0,74,0.00,,,0.00,Wunderground v.1.15,2013-03-03 08:45:00,
2013-03-03 00:55:00,54.1,45.6,30.11,SE,142,0.0,0.0,73,0.00,,,0.00,Wunderground v.1.15,2013-03-03 08:55:00,
2013-03-03 01:00:00,54.1,46.0,30.10,SE,142,0.0,0.0,74,0.00,,,0.00,Wunderground v.1.15,2013-03-03 09:00:00,
2013-03-03 01:05:00,54.1,45.6,30.10,West,259,0.0,0.0,73,0.00,,,0.00,Wunderground v.1.15,2013-03-03 09:05:00,
2013-03-03 01:15:00,54.2,45.4,30.10,East,92,0.0,1.0,72,0.00,,,0.00,Wunderground v.1.15,2013-03-03 09:15:00,
2013-03-03 01:20:00,54.2,45.7,30.10,East,92,0.0,0.0,73,0.00,,,0.00,Wunderground v.1.15,2013-03-03 09:20:00,
2013-03-03 01:25:00,54.2,45.7,30.10,East,92,0.0,0.0,73,0.00,,,0.00,Wunderground v.1.15,2013-03-03 09:25:00,
2013-03-03 01:30:00,54.1,45.6,30.11,WSW,243,0.0,0.0,73,0.00,,,0.00,Wunderground v.1.15,2013-03-03 09:30:00,
2013-03-03 01:35:00,54.1,45.6,30.11,WSW,254,0.0,0.0,73,0.00,,,0.00,Wunderground v.1.15,2013-03-03 09:35:00,
2013-03-03 01:45:00,54.2,45.7,30.10,NNW,347,0.0,0.0,73,0.00,,,0.00,Wunderground v.1.15,2013-03-03 09:45:00,
2013-03-03 01:50:00,54.2,45.4,30.10,East,89,0.0,2.0,72,0.00,,,0.00,Wunderground v.1.15,2013-03-03 09:50:00,
2013-03-03 02:00:00,54.2,45.7,30.09,East,79,1.0,1.0,73,0.00,,,0.00,Wunderground v.1.15,2013-03-03 10:00:00,
2013-03-03 02:05:00,54.2,45.7,30.10,SSE,155,0.0,1.0,73,0.00,,,0.00,Wunderground v.1.15,2013-03-03 10:05:00,
2013-03-03 02:10:00,54.3,45.8,30.10,SSE,155,0.0,0.0,73,0.00,,,0.00,Wunderground v.1.15,2013-03-03 10:10:00,
2013-03-03 02:20:00,54.6,45.8,30.09,SSE,157,1.0,1.0,72,0.00,,,0.00,Wunderground v.1.15,2013-03-03 10:20:00,
2013-03-03 02:25:00,54.6,46.1,30.09,SSE,166,0.0,1.0,73,0.00,,,0.00,Wunderground v.1.15,2013-03-03 10:25:00,
2013-03-03 02:30:00,54.4,45.9,30.09,SW,236,1.0,4.0,73,0.00,,,0.00,Wunderground v.1.15,2013-03-03 10:30:00,
2013-03-03 02:35:00,54.2,45.7,30.09,WSW,249,2.0,4.0,73,0.00,,,0.00,Wunderground v.1.15,2013-03-03 10:35:00,
2013-03-03 02:45:00,53.8,46.4,30.09,WSW,257,1.0,3.0,76,0.00,,,0.00,Wunderground v.1.15,2013-03-03 10:45:00,
2013-03-03 02:50:00,53.4,46.4,30.09,SE,145,1.0,1.0,77,0.00,,,0.00,Wunderground v.1.15,2013-03-03 10:50:00,
2013-03-03 02:55:00,53.0,46.7,30.09,SE,146,0.0,1.0,79,0.00,,,0.00,Wunderground v.1.15,2013-03-03 10:55:00,
2013-03-03 03:00:00,52.7,46.7,30.08,SE,146,0.0,0.0,80,0.00,,,0.00,Wunderground v.1.15,2013-03-03 11:00:00,
2013-03-03 03:10:00,52.1,46.8,30.09,SE,146,0.0,1.0,82,0.00,,,0.00,Wunderground v.1.15,2013-03-03 11:10:00,
2013-03-03 03:15:00,51.5,46.5,30.08,SE,146,1.0,1.0,83,0.00,,,0.00,Wunderground v.1.15,2013-03-03 11:15:00,
2013-03-03 03:20:00,51.2,46.8,30.08,SE,146,0.0,0.0,85,0.00,,,0.00,Wunderground v.1.15,2013-03-03 11:20:00,
2013-03-03 03:25:00,50.9,46.6,30.08,SE,146,0.0,0.0,85,0.00,,,0.00,Wunderground v.1.15,2013-03-03 11:25:00,
2013-03-03 03:30:00,50.7,46.7,30.08,SE,146,0.0,0.0,86,0.00,,,0.00,Wunderground v.1.15,2013-03-03 11:30:00,
2013-03-03 03:35:00,50.5,46.5,30.08,SE,146,0.0,0.0,86,0.00,,,0.00,Wunderground v.1.15,2013-03-03 11:35:00,
2013-03-03 03:40:00,50.3,46.6,30.08,SE,146,0.0,0.0,87,0.00,,,0.00,Wunderground v.1.15,2013-03-03 11:40:00,
2013-03-03 03:45:00,50.2,46.5,30.08,SE,146,0.0,0.0,87,0.00,,,0.00,Wunderground v.1.15,2013-03-03 11:45:00,
2013-03-03 03:50:00,50.1,46.7,30.08,SE,146,0.0,0.0,88,0.00,,,0.00,Wunderground v.1.15,2013-03-03 11:50:00,
2013-03-03 03:55:00,50.0,46.6,30.08,SE,146,0.0,0.0,88,0.00,,,0.00,Wunderground v.1.15,2013-03-03 11:55:00,
2013-03-03 04:00:00,49.9,46.5,30.08,SE,146,0.0,0.0,88,0.00,,,0.00,Wunderground v.1.15,2013-03-03 12:00:00,
2013-03-03 04:10:00,49.7,46.6,30.08,SE,146,0.0,0.0,89,0.00,,,0.00,Wunderground v.1.15,2013-03-03 12:10:00,
2013-03-03 04:15:00,49.6,46.5,30.08,SE,146,0.0,0.0,89,0.00,,,0.00,Wunderground v.1.15,2013-03-03 12:15:00,
2013-03-03 04:20:00,49.5,46.4,30.08,SE,146,0.0,0.0,89,0.00,,,0.00,Wunderground v.1.15,2013-03-03 12:20:00,
2013-03-03 04:25:00,49.4,46.6,30.08,SE,146,0.0,0.0,90,0.00,,,0.00,Wunderground v.1.15,2013-03-03 12:25:00,
2013-03-03 04:30:00,49.3,46.5,30.08,SE,146,0.0,0.0,90,0.00,,,0.00,Wunderground v.1.15,2013-03-03 12:30:00,
2013-03-03 04:40:00,49.6,46.2,30.08,SE,146,0.0,0.0,88,0.00,,,0.00,Wunderground v.1.15,2013-03-03 12:40:00,
2013-03-03 04:45:00,49.7,46.3,30.08,SE,146,0.0,0.0,88,0.00,,,0.00,Wunderground v.1.15,2013-03-03 12:45:00,
2013-03-03 04:50:00,50.1,46.1,30.08,East,90,1.0,1.0,86,0.00,,,0.00,Wunderground v.1.15,2013-03-03 12:50:00,
2013-03-03 05:00:00,51.0,46.0,30.08,WNW,294,1.0,1.0,83,0.00,,,0.00,Wunderground v.1.15,2013-03-03 13:00:00,
2013-03-03 05:05:00,51.1,45.8,30.08,WNW,293,1.0,1.0,82,0.00,,,0.00,Wunderground v.1.15,2013-03-03 13:05:00,
2013-03-03 05:10:00,51.0,46.0,30.08,ENE,76,0.0,0.0,83,0.00,,,0.00,Wunderground v.1.15,2013-03-03 13:10:00,
2013-03-03 05:15:00,50.9,46.2,30.08,NNE,29,0.0,0.0,84,0.00,,,0.00,Wunderground v.1.15,2013-03-03 13:15:00,
2013-03-03 05:25:00,50.3,46.0,30.09,NW,312,0.0,1.0,85,0.00,,,0.00,Wunderground v.1.15,2013-03-03 13:25:00,
2013-03-03 05:30:00,50.2,45.9,30.08,NW,312,0.0,0.0,85,0.00,,,0.00,Wunderground v.1.15,2013-03-03 13:30:00,
2013-03-03 05:35:00,50.0,46.0,30.08,NW,304,0.0,0.0,86,0.00,,,0.00,Wunderground v.1.15,2013-03-03 13:35:00,
2013-03-03 05:45:00,49.7,46.0,30.08,NW,322,0.0,0.0,87,0.00,,,0.00,Wunderground v.1.15,2013-03-03 13:45:00,
2013-03-03 05:50:00,49.6,45.9,30.08,NW,322,0.0,0.0,87,0.00,,,0.00,Wunderground v.1.15,2013-03-03 13:50:00,
2013-03-03 05:55:00,49.5,45.8,30.08,NW,322,0.0,0.0,87,0.00,,,0.00,Wunderground v.1.15,2013-03-03 13:55:00,
2013-03-03 06:05:00,49.4,45.7,30.08,NW,322,0.0,0.0,87,0.00,,,0.00,Wunderground v.1.15,2013-03-03 14:05:00,
2013-03-03 06:10:00,49.2,45.8,30.08,NW,322,0.0,0.0,88,0.00,,,0.00,Wunderground v.1.15,2013-03-03 14:10:00,
2013-03-03 06:15:00,49.2,45.8,30.08,NW,322,0.0,0.0,88,0.00,,,0.00,Wunderground v.1.15,2013-03-03 14:15:00,
2013-03-03 06:20:00,49.1,45.7,30.08,NW,322,0.0,0.0,88,0.00,,,0.00,Wunderground v.1.15,2013-03-03 14:20:00,
2013-03-03 06:25:00,49.0,45.6,30.08,NW,322,0.0,0.0,88,0.00,,,0.00,Wunderground v.1.15,2013-03-03 14:25:00,
2013-03-03 06:30:00,49.0,45.9,30.08,NW,321,0.0,0.0,89,0.00,,,0.00,Wunderground v.1.15,2013-03-03 14:30:00,
2013-03-03 06:40:00,48.9,45.8,30.08,NW,321,0.0,0.0,89,0.00,,,0.00,Wunderground v.1.15,2013-03-03 14:40:00,
2013-03-03 06:45:00,48.9,45.8,30.08,NW,321,0.0,0.0,89,0.00,,,0.00,Wunderground v.1.15,2013-03-03 14:45:00,
2013-03-03 06:55:00,48.8,46.0,30.08,NW,321,0.0,0.0,90,0.00,,,0.00,Wunderground v.1.15,2013-03-03 14:55:00,
2013-03-03 07:00:00,48.8,46.0,30.08,NW,321,0.0,0.0,90,0.00,,,0.00,Wunderground v.1.15,2013-03-03 15:00:00,
2013-03-03 07:05:00,48.8,46.0,30.08,NW,321,0.0,0.0,90,0.00,,,0.00,Wunderground v.1.15,2013-03-03 15:05:00,
2013-03-03 07:15:00,48.8,46.0,30.09,WNW,286,0.0,0.0,90,0.00,,,0.00,Wunderground v.1.15,2013-03-03 15:15:00,
2013-03-03 07:20:00,48.8,46.0,30.09,NW,315,0.0,0.0,90,0.00,,,0.00,Wunderground v.1.15,2013-03-03 15:20:00,
2013-03-03 07:25:00,48.9,46.1,30.09,NW,315,0.0,0.0,90,0.00,,,0.00,Wunderground v.1.15,2013-03-03 15:25:00,
2013-03-03 07:30:00,48.9,46.1,30.08,NW,315,0.0,0.0,90,0.00,,,0.00,Wunderground v.1.15,2013-03-03 15:30:00,
2013-03-03 07:40:00,49.2,46.4,30.09,NW,315,0.0,0.0,90,0.00,,,0.00,Wunderground v.1.15,2013-03-03 15:40:00,
2013-03-03 07:45:00,49.3,46.5,30.09,NW,304,0.0,0.0,90,0.00,,,0.00,Wunderground v.1.15,2013-03-03 15:45:00,
2013-03-03 07:55:00,49.6,46.5,30.09,NW,304,0.0,0.0,89,0.00,,,0.00,Wunderground v.1.15,2013-03-03 15:55:00,
2013-03-03 08:00:00,49.9,46.5,30.09,WSW,246,0.0,3.0,88,0.00,,,0.00,Wunderground v.1.15,2013-03-03 16:00:00,
2013-03-03 08:10:00,50.3,46.6,30.09,West,262,0.0,0.0,87,0.00,,,0.00,Wunderground v.1.15,2013-03-03 16:10:00,
2013-03-03 08:15:00,50.5,46.8,30.09,SE,145,0.0,0.0,87,0.00,,,0.00,Wunderground v.1.15,2013-03-03 16:15:00,
2013-03-03 08:20:00,51.0,47.0,30.09,SE,131,0.0,1.0,86,0.00,,,0.00,Wunderground v.1.15,2013-03-03 16:20:00,
2013-03-03 08:25:00,51.7,47.0,30.09,SE,137,0.0,1.0,84,0.00,,,0.00,Wunderground v.1.15,2013-03-03 16:25:00,
2013-03-03 08:35:00,53.1,47.7,30.09,SSE,154,0.0,2.0,82,0.00,,,0.00,Wunderground v.1.15,2013-03-03 16:35:00,
2013-03-03 08:40:00,54.2,48.5,30.09,SSE,161,1.0,1.0,81,0.00,,,0.00,Wunderground v.1.15,2013-03-03 16:40:00,
2013-03-03 08:45:00,54.9,48.5,30.08,SSE,162,1.0,1.0,79,0.00,,,0.00,Wunderground v.1.15,2013-03-03 16:45:00,
2013-03-03 08:50:00,55.5,48.8,30.08,WSW,254,0.0,3.0,78,0.00,,,0.00,Wunderground v.1.15,2013-03-03 16:50:00,
2013-03-03 08:55:00,55.8,48.3,30.09,WSW,253,1.0,3.0,76,0.00,,,0.00,Wunderground v.1.15,2013-03-03 16:55:00,
2013-03-03 09:00:00,55.9,48.1,30.09,WSW,253,1.0,1.0,75,0.00,,,0.00,Wunderground v.1.15,2013-03-03 17:00:00,
2013-03-03 09:10:00,55.9,47.0,30.09,SW,226,1.0,1.0,72,0.00,,,0.00,Wunderground v.1.15,2013-03-03 17:10:00,
2013-03-03 09:15:00,55.7,47.2,30.09,West,264,1.0,4.0,73,0.00,,,0.00,Wunderground v.1.15,2013-03-03 17:15:00,
2013-03-03 09:20:00,55.7,47.2,30.09,NE,39,1.0,1.0,73,0.00,,,0.00,Wunderground v.1.15,2013-03-03 17:20:00,
2013-03-03 09:25:00,55.9,47.0,30.09,NW,315,1.0,1.0,72,0.00,,,0.00,Wunderground v.1.15,2013-03-03 17:25:00,
2013-03-03 09:30:00,56.0,47.5,30.09,WSW,257,1.0,3.0,73,0.00,,,0.00,Wunderground v.1.15,2013-03-03 17:30:00,
2013-03-03 09:40:00,56.0,46.7,30.09,West,272,1.0,2.0,71,0.00,,,0.00,Wunderground v.1.15,2013-03-03 17:40:00,
2013-03-03 09:45:00,56.2,46.9,30.09,South,176,1.0,2.0,71,0.00,,,0.00,Wunderground v.1.15,2013-03-03 17:45:00,
2013-03-03 09:50:00,56.5,46.8,30.09,WSW,252,1.0,2.0,70,0.00,,,0.00,Wunderground v.1.15,2013-03-03 17:50:00,
2013-03-03 09:55:00,56.7,47.0,30.09,WSW,242,1.0,2.0,70,0.00,,,0.00,Wunderground v.1.15,2013-03-03 17:55:00,
2013-03-03 10:00:00,57.1,47.4,30.10,West,272,1.0,2.0,70,0.00,,,0.00,Wunderground v.1.15,2013-03-03 18:00:00,
2013-03-03 10:05:00,57.5,48.5,30.10,West,260,1.0,2.0,72,0.00,,,0.00,Wunderground v.1.15,2013-03-03 18:05:00,
2013-03-03 10:10:00,57.9,48.2,30.10,WSW,243,2.0,2.0,70,0.00,,,0.00,Wunderground v.1.15,2013-03-03 18:10:00,
2013-03-03 10:15:00,58.6,48.5,30.10,West,273,1.0,2.0,69,0.00,,,0.00,Wunderground v.1.15,2013-03-03 18:15:00,
2013-03-03 10:25:00,60.2,48.4,30.09,WSW,245,1.0,4.0,65,0.00,,,0.00,Wunderground v.1.15,2013-03-03 18:25:00,
2013-03-03 10:30:00,60.4,46.9,30.09,West,265,2.0,8.0,61,0.00,,,0.00,Wunderground v.1.15,2013-03-03 18:30:00,
2013-03-03 10:35:00,60.6,46.6,30.09,North,355,2.0,8.0,60,0.00,,,0.00,Wunderground v.1.15,2013-03-03 18:35:00,
2013-03-03 10:40:00,60.9,46.5,30.09,WNW,293,2.0,2.0,59,0.00,,,0.00,Wunderground v.1.15,2013-03-03 18:40:00,
2013-03-03 10:45:00,60.8,45.9,30.09,NW,310,2.0,3.0,58,0.00,,,0.00,Wunderground v.1.15,2013-03-03 18:45:00,
2013-03-03 10:50:00,60.8,46.4,30.09,NNW,346,3.0,4.0,59,0.00,,,0.00,Wunderground v.1.15,2013-03-03 18:50:00,
2013-03-03 10:55:00,60.3,45.9,30.09,NW,304,3.0,4.0,59,0.00,,,0.00,Wunderground v.1.15,2013-03-03 18:55:00,
2013-03-03 11:00:00,60.3,45.5,30.09,NNW,331,4.0,4.0,58,0.00,,,0.00,Wunderground v.1.15,2013-03-03 19:00:00,
2013-03-03 11:05:00,60.8,45.9,30.09,WNW,302,3.0,8.0,58,0.00,,,0.00,Wunderground v.1.15,2013-03-03 19:05:00,
2013-03-03 11:15:00,61.1,45.3,30.09,West,280,4.0,4.0,56,0.00,,,0.00,Wunderground v.1.15,2013-03-03 19:15:00,
2013-03-03 11:20:00,61.4,45.6,30.09,SSW,197,3.0,3.0,56,0.00,,,0.00,Wunderground v.1.15,2013-03-03 19:20:00,
2013-03-03 11:25:00,60.9,46.0,30.09,NW,309,4.0,4.0,58,0.00,,,0.00,Wunderground v.1.15,2013-03-03 19:25:00,
2013-03-03 11:30:00,61.1,46.2,30.09,NNW,334,4.0,4.0,58,0.00,,,0.00,Wunderground v.1.15,2013-03-03 19:30:00,
2013-03-03 11:40:00,62.4,46.5,30.09,WSW,256,2.0,2.0,56,0.00,,,0.00,Wunderground v.1.15,2013-03-03 19:40:00,
2013-03-03 11:45:00,63.0,47.5,30.09,NNE,29,2.0,2.0,57,0.00,,,0.00,Wunderground v.1.15,2013-03-03 19:45:00,
2013-03-03 11:50:00,62.8,45.9,30.09,SSW,207,2.0,2.0,54,0.00,,,0.00,Wunderground v.1.15,2013-03-03 19:50:00,
2013-03-03 11:55:00,62.5,46.6,30.09,East,86,3.0,3.0,56,0.00,,,0.00,Wunderground v.1.15,2013-03-03 19:55:00,
2013-03-03 12:00:00,62.7,46.3,30.08,West,275,2.0,2.0,55,0.00,,,0.00,Wunderground v.1.15,2013-03-03 20:00:00,
2013-03-03 12:10:00,62.7,45.3,30.08,WNW,286,3.0,3.0,53,0.00,,,0.00,Wunderground v.1.15,2013-03-03 20:10:00,
2013-03-03 12:15:00,62.8,45.9,30.08,ESE,108,3.0,3.0,54,0.00,,,0.00,Wunderground v.1.15,2013-03-03 20:15:00,
2013-03-03 12:20:00,62.8,45.9,30.08,SW,224,3.0,3.0,54,0.00,,,0.00,Wunderground v.1.15,2013-03-03 20:20:00,
2013-03-03 12:25:00,63.0,46.6,30.08,East,96,3.0,3.0,55,0.00,,,0.00,Wunderground v.1.15,2013-03-03 20:25:00,
2013-03-03 12:35:00,63.5,46.6,30.08,West,267,2.0,2.0,54,0.00,,,0.00,Wunderground v.1.15,2013-03-03 20:35:00,
2013-03-03 12:40:00,63.2,45.8,30.08,NNW,331,3.0,4.0,53,0.00,,,0.00,Wunderground v.1.15,2013-03-03 20:40:00,
2013-03-03 12:45:00,63.1,46.2,30.07,SW,218,2.0,4.0,54,0.00,,,0.00,Wunderground v.1.15,2013-03-03 20:45:00,
2013-03-03 12:50:00,63.3,45.9,30.08,NW,322,2.0,3.0,53,0.00,,,0.00,Wunderground v.1.15,2013-03-03 20:50:00,
2013-03-03 13:00:00,63.5,46.1,30.07,South,182,2.0,2.0,53,0.00,,,0.00,Wunderground v.1.15,2013-03-03 21:00:00,
2013-03-03 13:05:00,63.5,46.6,30.07,West,264,2.0,3.0,54,0.00,,,0.00,Wunderground v.1.15,2013-03-03 21:05:00,
2013-03-03 13:10:00,63.1,46.2,30.06,NNW,329,3.0,3.0,54,0.00,,,0.00,Wunderground v.1.15,2013-03-03 21:10:00,
2013-03-03 13:15:00,63.0,46.6,30.06,North,350,3.0,4.0,55,0.00,,,0.00,Wunderground v.1.15,2013-03-03 21:15:00,
2013-03-03 13:20:00,63.0,46.1,30.06,NNW,336,2.0,2.0,54,0.00,,,0.00,Wunderground v.1.15,2013-03-03 21:20:00,
2013-03-03 13:30:00,63.0,46.6,30.06,NW,325,2.0,4.0,55,0.00,,,0.00,Wunderground v.1.15,2013-03-03 21:30:00,
2013-03-03 13:35:00,62.7,46.3,30.06,WNW,296,3.0,4.0,55,0.00,,,0.00,Wunderground v.1.15,2013-03-03 21:35:00,
2013-03-03 13:45:00,64.5,47.5,30.06,West,261,1.0,2.0,54,0.00,,,0.00,Wunderground v.1.15,2013-03-03 21:45:00,
2013-03-03 13:50:00,64.6,46.6,30.06,WSW,256,2.0,6.0,52,0.00,,,0.00,Wunderground v.1.15,2013-03-03 21:50:00,
2013-03-03 13:55:00,63.0,46.1,30.06,West,274,3.0,6.0,54,0.00,,,0.00,Wunderground v.1.15,2013-03-03 21:55:00,
2013-03-03 14:00:00,62.7,46.3,30.06,West,267,3.0,3.0,55,0.00,,,0.00,Wunderground v.1.15,2013-03-03 22:00:00,
2013-03-03 14:05:00,62.6,46.2,30.06,West,271,3.0,3.0,55,0.00,,,0.00,Wunderground v.1.15,2013-03-03 22:05:00,
2013-03-03 14:15:00,62.4,46.5,30.06,South,188,3.0,3.0,56,0.00,,,0.00,Wunderground v.1.15,2013-03-03 22:15:00,
2013-03-03 14:25:00,63.4,46.5,30.06,WNW,292,2.0,6.0,54,0.00,,,0.00,Wunderground v.1.15,2013-03-03 22:25:00,
2013-03-03 14:30:00,62.7,45.8,30.06,West,267,3.0,3.0,54,0.00,,,0.00,Wunderground v.1.15,2013-03-03 22:30:00,
2013-03-03 14:35:00,62.8,46.4,30.06,West,269,3.0,4.0,55,0.00,,,0.00,Wunderground v.1.15,2013-03-03 22:35:00,
2013-03-03 14:45:00,62.0,47.0,30.05,West,259,4.0,4.0,58,0.00,,,0.00,Wunderground v.1.15,2013-03-03 22:45:00,
2013-03-03 14:50:00,61.4,46.9,30.06,West,271,4.0,4.0,59,0.00,,,0.00,Wunderground v.1.15,2013-03-03 22:50:00,
2013-03-03 14:55:00,61.2,47.6,30.05,WNW,294,4.0,6.0,61,0.00,,,0.00,Wunderground v.1.15,2013-03-03 22:55:00,
2013-03-03 15:00:00,60.7,47.6,30.06,NNW,329,4.0,4.0,62,0.00,,,0.00,Wunderground v.1.15,2013-03-03 23:00:00,
2013-03-03 15:05:00,60.2,47.6,30.05,NW,309,4.0,6.0,63,0.00,,,0.00,Wunderground v.1.15,2013-03-03 23:05:00,
2013-03-03 15:10:00,59.6,48.2,30.05,WSW,253,4.0,4.0,66,0.00,,,0.00,Wunderground v.1.15,2013-03-03 23:10:00,
2013-03-03 15:20:00,59.8,48.4,30.05,WSW,248,3.0,7.0,66,0.00,,,0.00,Wunderground v.1.15,2013-03-03 23:20:00,
2013-03-03 15:25:00,59.6,48.2,30.05,West,266,3.0,7.0,66,0.00,,,0.00,Wunderground v.1.15,2013-03-03 23:25:00,
2013-03-03 15:30:00,59.0,48.1,30.05,WNW,287,3.0,3.0,67,0.00,,,0.00,Wunderground v.1.15,2013-03-03 23:30:00,
2013-03-03 15:35:00,58.4,47.5,30.05,SW,215,3.0,3.0,67,0.00,,,0.00,Wunderground v.1.15,2013-03-03 23:35:00,
2013-03-03 15:40:00,58.3,47.8,30.05,SE,136,3.0,3.0,68,0.00,,,0.00,Wunderground v.1.15,2013-03-03 23:40:00,
2013-03-03 15:45:00,58.6,48.5,30.05,SSE,164,2.0,3.0,69,0.00,,,0.00,Wunderground v.1.15,2013-03-03 23:45:00,
2013-03-03 15:55:00,57.7,47.6,30.05,WNW,286,3.0,5.0,69,0.00,,,0.00,Wunderground v.1.15,2013-03-03 23:55:00,
2013-03-03 16:00:00,56.7,47.4,30.05,West,269,3.0,8.0,71,0.00,,,0.00,Wunderground v.1.15,2013-03-04 00:00:00,
2013-03-03 16:05:00,56.3,47.4,30.05,West,271,3.0,8.0,72,0.00,,,0.00,Wunderground v.1.15,2013-03-04 00:05:00,
2013-03-03 16:10:00,56.2,47.3,30.05,SW,232,2.0,2.0,72,0.00,,,0.00,Wunderground v.1.15,2013-03-04 00:10:00,
2013-03-03 16:15:00,56.3,47.4,30.05,West,263,2.0,3.0,72,0.00,,,0.00,Wunderground v.1.15,2013-03-04 00:15:00,
2013-03-03 16:25:00,55.8,46.9,30.05,West,272,2.0,3.0,72,0.00,,,0.00,Wunderground v.1.15,2013-03-04 00:25:00,
2013-03-03 16:30:00,55.3,46.8,30.05,WSW,241,2.0,3.0,73,0.00,,,0.00,Wunderground v.1.15,2013-03-04 00:30:00,
2013-03-03 16:40:00,54.6,46.5,30.05,WNW,288,2.0,3.0,74,0.00,,,0.00,Wunderground v.1.15,2013-03-04 00:40:00,
2013-03-03 16:45:00,53.9,46.2,30.05,NNW,348,2.0,3.0,75,0.00,,,0.00,Wunderground v.1.15,2013-03-04 00:45:00,
2013-03-03 16:50:00,53.7,46.3,30.05,SSE,157,2.0,2.0,76,0.00,,,0.00,Wunderground v.1.15,2013-03-04 00:50:00,
2013-03-03 17:00:00,53.0,46.0,30.05,WNW,287,1.0,1.0,77,0.00,,,0.00,Wunderground v.1.15,2013-03-04 01:00:00,
2013-03-03 17:05:00,53.0,46.0,30.06,West,263,1.0,5.0,77,0.00,,,0.00,Wunderground v.1.15,2013-03-04 01:05:00,
2013-03-03 17:10:00,52.9,46.2,30.06,West,261,2.0,7.0,78,0.00,,,0.00,Wunderground v.1.15,2013-03-04 01:10:00,
2013-03-03 17:15:00,52.4,46.1,30.06,NW,308,3.0,7.0,79,0.00,,,0.00,Wunderground v.1.15,2013-03-04 01:15:00,
2013-03-03 17:25:00,51.6,45.6,30.06,WNW,290,3.0,4.0,80,0.00,,,0.00,Wunderground v.1.15,2013-03-04 01:25:00,
2013-03-03 17:30:00,51.3,45.7,30.06,West,263,3.0,3.0,81,0.00,,,0.00,Wunderground v.1.15,2013-03-04 01:30:00,
2013-03-03 17:40:00,50.6,45.3,30.06,WSW,254,1.0,1.0,82,0.00,,,0.00,Wunderground v.1.15,2013-03-04 01:40:00,
2013-03-03 17:45:00,50.3,45.3,30.07,WNW,289,1.0,1.0,83,0.00,,,0.00,Wunderground v.1.15,2013-03-04 01:45:00,
2013-03-03 17:50:00,50.2,45.2,30.06,West,273,0.0,0.0,83,0.00,,,0.00,Wunderground v.1.15,2013-03-04 01:50:00,
2013-03-03 18:00:00,49.9,44.9,30.06,West,275,0.0,0.0,83,0.00,,,0.00,Wunderground v.1.15,2013-03-04 02:00:00,
2013-03-03 18:05:00,49.7,44.7,30.06,West,264,0.0,1.0,83,0.00,,,0.00,Wunderground v.1.15,2013-03-04 02:05:00,
2013-03-03 18:15:00,49.4,44.8,30.07,WSW,246,0.0,0.0,84,0.00,,,0.00,Wunderground v.1.15,2013-03-04 02:15:00,
2013-03-03 18:20:00,49.2,44.6,30.07,West,271,1.0,1.0,84,0.00,,,0.00,Wunderground v.1.15,2013-03-04 02:20:00,
2013-03-03 18:25:00,48.9,44.6,30.07,WNW,289,1.0,1.0,85,0.00,,,0.00,Wunderground v.1.15,2013-03-04 02:25:00,
2013-03-03 18:30:00,48.7,44.4,30.07,WSW,252,0.0,0.0,85,0.00,,,0.00,Wunderground v.1.15,2013-03-04 02:30:00,
2013-03-03 18:35:00,48.5,44.5,30.07,West,269,0.0,0.0,86,0.00,,,0.00,Wunderground v.1.15,2013-03-04 02:35:00,
2013-03-03 18:40:00,48.2,44.2,30.07,WNW,282,1.0,1.0,86,0.00,,,0.00,Wunderground v.1.15,2013-03-04 02:40:00,
2013-03-03 18:45:00,48.0,44.3,30.08,WNW,299,0.0,1.0,87,0.00,,,0.00,Wunderground v.1.15,2013-03-04 02:45:00,
2013-03-03 18:55:00,47.8,44.1,30.08,NW,304,0.0,1.0,87,0.00,,,0.00,Wunderground v.1.15,2013-03-04 02:55:00,
2013-03-03 19:00:00,47.7,44.0,30.08,East,94,0.0,0.0,87,0.00,,,0.00,Wunderground v.1.15,2013-03-04 03:00:00,
2013-03-03 19:05:00,47.6,43.9,30.08,East,94,0.0,0.0,87,0.00,,,0.00,Wunderground v.1.15,2013-03-04 03:05:00,
2013-03-03 19:10:00,47.5,44.1,30.08,WNW,292,0.0,0.0,88,0.00,,,0.00,Wunderground v.1.15,2013-03-04 03:10:00,
2013-03-03 19:20:00,47.2,44.1,30.08,NW,310,1.0,1.0,89,0.00,,,0.00,Wunderground v.1.15,2013-03-04 03:20:00,
2013-03-03 19:25:00,47.2,44.1,30.08,NW,310,0.0,1.0,89,0.00,,,0.00,Wunderground v.1.15,2013-03-04 03:25:00,
2013-03-03 19:30:00,47.0,43.9,30.08,West,269,0.0,3.0,89,0.00,,,0.00,Wunderground v.1.15,2013-03-04 03:30:00,
2013-03-03 19:35:00,47.0,44.2,30.08,SSE,168,0.0,3.0,90,0.00,,,0.00,Wunderground v.1.15,2013-03-04 03:35:00,
2013-03-03 19:40:00,46.9,44.1,30.08,WSW,249,0.0,0.0,90,0.00,,,0.00,Wunderground v.1.15,2013-03-04 03:40:00,
2013-03-03 19:50:00,46.8,44.0,30.08,WNW,301,0.0,0.0,90,0.00,,,0.00,Wunderground v.1.15,2013-03-04 03:50:00,
2013-03-03 19:55:00,46.8,44.0,30.08,WNW,284,0.0,4.0,90,0.00,,,0.00,Wunderground v.1.15,2013-03-04 03:55:00,
2013-03-03 20:00:00,46.8,44.0,30.08,West,265,1.0,3.0,90,0.00,,,0.00,Wunderground v.1.15,2013-03-04 04:00:00,
2013-03-03 20:05:00,46.8,44.0,30.08,West,260,1.0,3.0,90,0.00,,,0.00,Wunderground v.1.15,2013-03-04 04:05:00,
2013-03-03 20:10:00,46.7,44.2,30.08,West,269,1.0,1.0,91,0.00,,,0.00,Wunderground v.1.15,2013-03-04 04:10:00,
2013-03-03 20:15:00,46.7,44.2,30.08,West,259,1.0,1.0,91,0.00,,,0.00,Wunderground v.1.15,2013-03-04 04:15:00,
2013-03-03 20:20:00,46.6,44.1,30.08,West,271,1.0,4.0,91,0.00,,,0.00,Wunderground v.1.15,2013-03-04 04:20:00,
2013-03-03 20:30:00,46.6,44.1,30.09,West,269,1.0,1.0,91,0.00,,,0.00,Wunderground v.1.15,2013-03-04 04:30:00,
2013-03-03 20:35:00,46.5,44.0,30.09,West,259,1.0,3.0,91,0.00,,,0.00,Wunderground v.1.15,2013-03-04 04:35:00,
2013-03-03 20:40:00,46.5,44.0,30.09,WSW,255,1.0,1.0,91,0.00,,,0.00,Wunderground v.1.15,2013-03-04 04:40:00,
2013-03-03 20:50:00,46.2,43.7,30.09,West,268,1.0,1.0,91,0.00,,,0.00,Wunderground v.1.15,2013-03-04 04:50:00,
2013-03-03 21:00:00,45.9,43.4,30.09,West,272,1.0,1.0,91,0.00,,,0.00,Wunderground v.1.15,2013-03-04 05:00:00,
2013-03-03 21:05:00,45.8,43.3,30.09,NW,324,1.0,1.0,91,0.00,,,0.00,Wunderground v.1.15,2013-03-04 05:05:00,
2013-03-03 21:10:00,45.8,43.6,30.09,West,267,0.0,2.0,92,0.00,,,0.00,Wunderground v.1.15,2013-03-04 05:10:00,
2013-03-03 21:15:00,45.8,43.6,30.09,West,273,1.0,3.0,92,0.00,,,0.00,Wunderground v.1.15,2013-03-04 05:15:00,
2013-03-03 21:20:00,45.7,43.5,30.09,NNE,15,1.0,1.0,92,0.00,,,0.00,Wunderground v.1.15,2013-03-04 05:20:00,
2013-03-03 21:30:00,45.5,43.0,30.09,WSW,252,1.0,1.0,91,0.00,,,0.00,Wunderground v.1.15,2013-03-04 05:30:00,
2013-03-03 21:35:00,45.4,43.2,30.10,West,277,1.0,1.0,92,0.00,,,0.00,Wunderground v.1.15,2013-03-04 05:35:00,
2013-03-03 21:40:00,45.4,43.2,30.10,West,266,2.0,3.0,92,0.00,,,0.00,Wunderground v.1.15,2013-03-04 05:40:00,
2013-03-03 21:45:00,45.4,43.2,30.10,WSW,246,3.0,3.0,92,0.00,,,0.00,Wunderground v.1.15,2013-03-04 05:45:00,
2013-03-03 21:50:00,45.4,43.2,30.10,WSW,252,2.0,2.0,92,0.00,,,0.00,Wunderground v.1.15,2013-03-04 05:50:00,
2013-03-03 22:00:00,45.3,43.1,30.10,West,262,3.0,3.0,92,0.00,,,0.00,Wunderground v.1.15,2013-03-04 06:00:00,
2013-03-03 22:05:00,45.3,43.1,30.10,WSW,248,3.0,3.0,92,0.00,,,0.00,Wunderground v.1.15,2013-03-04 06:05:00,
2013-03-03 22:15:00,45.4,43.2,30.10,West,261,2.0,6.0,92,0.00,,,0.00,Wunderground v.1.15,2013-03-04 06:15:00,
2013-03-03 22:20:00,45.5,43.3,30.10,West,271,2.0,2.0,92,0.00,,,0.00,Wunderground v.1.15,2013-03-04 06:20:00,
2013-03-03 22:25:00,45.5,43.3,30.10,West,276,2.0,2.0,92,0.00,,,0.00,Wunderground v.1.15,2013-03-04 06:25:00,
2013-03-03 22:30:00,45.6,43.4,30.10,West,272,1.0,1.0,92,0.00,,,0.00,Wunderground v.1.15,2013-03-04 06:30:00,
2013-03-03 22:40:00,45.5,43.3,30.10,WNW,291,1.0,3.0,92,0.00,,,0.00,Wunderground v.1.15,2013-03-04 06:40:00,
2013-03-03 22:45:00,45.5,43.3,30.10,WSW,241,1.0,3.0,92,0.00,,,0.00,Wunderground v.1.15,2013-03-04 06:45:00,
2013-03-03 22:50:00,45.4,43.2,30.10,NW,321,1.0,1.0,92,0.00,,,0.00,Wunderground v.1.15,2013-03-04 06:50:00,
2013-03-03 22:55:00,45.2,43.0,30.10,ESE,111,1.0,1.0,92,0.00,,,0.00,Wunderground v.1.15,2013-03-04 06:55:00,
2013-03-03 23:00:00,45.2,43.0,30.10,ENE,72,1.0,1.0,92,0.00,,,0.00,Wunderground v.1.15,2013-03-04 07:00:00,
2013-03-03 23:10:00,45.2,43.3,30.10,SE,134,0.0,0.0,93,0.00,,,0.00,Wunderground v.1.15,2013-03-04 07:10:00,
2013-03-03 23:15:00,45.2,43.3,30.10,ESE,121,0.0,0.0,93,0.00,,,0.00,Wunderground v.1.15,2013-03-04 07:15:00,
2013-03-03 23:20:00,45.2,43.3,30.10,ESE,121,0.0,0.0,93,0.00,,,0.00,Wunderground v.1.15,2013-03-04 07:20:00,
2013-03-03 23:25:00,45.2,43.3,30.10,ESE,122,0.0,0.0,93,0.00,,,0.00,Wunderground v.1.15,2013-03-04 07:25:00,
2013-03-03 23:35:00,45.3,43.4,30.10,West,271,1.0,2.0,93,0.00,,,0.00,Wunderground v.1.15,2013-03-04 07:35:00,
2013-03-03 23:40:00,45.2,43.3,30.10,West,262,1.0,1.0,93,0.00,,,0.00,Wunderground v.1.15,2013-03-04 07:40:00,
2013-03-03 23:45:00,45.2,43.3,30.10,West,280,1.0,1.0,93,0.00,,,0.00,Wunderground v.1.15,2013-03-04 07:45:00,
2013-03-03 23:55:00,45.2,43.3,30.10,WNW,303,0.0,0.0,93,0.00,,,0.00,Wunderground v.1.15,2013-03-04 07:55:00,